LEPPLEZG

Guest
Details From LEPP - Pamplona
To LEZG - Zaragoza AB
Flight Number -
Tags generated
Created
Modified
Stats Distance 72 nm / 133 km
Max Altitude 6,700 ft / 2,042 m
Waypoints 3
Social Downloads 0
Likes 0
Share VATSIM

Download

Looking for another format? Having issues loading an existing format? Contact us
Advertisement - Login to hide

Notes

Basic altitude profile: - Ascent Rate: 1500ft/min - Ascent Speed: 140kts - Cruise Altitude: 10000ft - Cruise Speed: 180kts - Descent Rate: 150ft/min - Descent Speed: 180kts Options: - Use NATs: yes - Use PACOTS: yes - Use low airways: yes - Use high airways: yes

Route

LEPP LARDA LEZG

ID Type Via Altitude Latitude Longitude Leg Dist Tot Dist Heading (true) Name
O LEPP APT - 0 ft / 0 m 42.77083˚ -1.64688˚ - 0 nm - Pamplona
LARDA FIX - 6,700 ft / 2,042 m 42.13158˚ -1.36209˚ 40 nm 40 nm 162° / 162° -
O LEZG APT - 0 ft / 0 m 41.66703˚ -1.04356˚ 31 nm 71 nm 153° / 153° Zaragoza AB

Altitude Profile

Advertisement - Login to hide

LEPP

Details ICAO LEPP (PNA)
Name Pamplona
Region Spain
Timezone Europe/Madrid (UTC+1.0)
Stats Elevation 1,503 ft / 458 m (AMSL)
Location 42.770831° -1.646876°
Runways 2
Magnetic Variation 0.228° W

METAR

LEPP 122130Z 10001KT 9999 FEW040 01/00 Q1021

Decode

TAF

TAF LEPP 122000Z 1221/1321 VRB04KT 9999 FEW050 TX10/1315Z TNM00/1307Z PROB40 TEMPO 1309/1318 16010KT

Decode

Departure Runways

ID Width Length Bearing (true) Bearing (mag) Surface Threshold Offset Overrun Length
15 148 ft / 45 m 7,192 ft / 2,192 m 151.64° 151.87° Asphalt 0 ft / 0 m 0 ft / 0 m
16 148 ft / 45 m 7,245 ft / 2,208 m 151.86° 152.09° Asphalt 0 ft / 0 m 0 ft / 0 m
33 148 ft / 45 m 7,192 ft / 2,192 m 331.65° 331.88° Asphalt 984 ft / 300 m 656 ft / 200 m
34 148 ft / 45 m 7,245 ft / 2,208 m 331.86° 332.09° Asphalt 984 ft / 300 m 0 ft / 0 m

LEZG

Details ICAO LEZG (ZAZ)
Name Zaragoza AB
Region Spain
Timezone Europe/Madrid (UTC+1.0)
Stats Elevation 862 ft / 263 m (AMSL)
Location 41.667030° -1.043559°
Runways 2
Magnetic Variation 0.012° W

METAR

LEZG 122130Z 23006KT CAVOK 05/00 Q1022

Decode

TAF

TAF LEZG 121700Z 1218/1318 28010KT 9999 SCT040 TX14/1313Z TN01/1306Z BECMG 1220/1222 23010KT TEMPO 1300/1318 24015G25KT

Decode

Destination Runways

ID Width Length Bearing (true) Bearing (mag) Surface Threshold Offset Overrun Length
12L 148 ft / 45 m 9,934 ft / 3,028 m 120.12° 120.13° Asphalt 0 ft / 0 m 984 ft / 300 m
12R 148 ft / 45 m 12,181 ft / 3,713 m 120.10° 120.11° Asphalt 0 ft / 0 m 984 ft / 300 m
30L 148 ft / 45 m 12,181 ft / 3,713 m 300.12° 300.13° Asphalt 0 ft / 0 m 984 ft / 300 m
30R 148 ft / 45 m 9,934 ft / 3,028 m 300.14° 300.15° Asphalt 0 ft / 0 m 607 ft / 185 m

Approach Navaids

Runway Type Ident Frequency Range Bearing (true) Bearing (mag) Slope Elevation
30R Localiser IZZA 109.50 MHz 18 nm / 33 km 300.12° 300.13° - 862 ft / 263 m (AMSL)
30R Glidescope IZZA 109.50 MHz 10 nm / 19 km 300.13° 300.14° 2.50° 862 ft / 263 m (AMSL)

Popular Alternatives